Time;durP1;ratioP1;P1;durP2;ratioP2;P2;SDS_P1;SDS_P2;PMS_P1;PMS_P2;Temp;Humidity;BMP_temperature;BMP_pressure;BME280_temperature;BME280_humidity;BME280_pressure;Samples;Min_cycle;Max_cycle;Signal;HPM_P1;HPM_P2
2022/07/10 00:04:18;;;;;;;5.43;4.47;;;17.00;99.90;;;;;;10328715;28;20326;-66
2022/07/10 00:09:19;;;;;;;4.60;4.20;;;16.90;99.90;;;;;;10343483;28;20295;-67
2022/07/10 00:14:20;;;;;;;5.70;4.63;;;16.80;99.90;;;;;;10324586;28;20223;-67
2022/07/10 00:19:20;;;;;;;5.77;3.70;;;16.80;99.90;;;;;;10354228;28;20230;-68
2022/07/10 00:24:21;;;;;;;4.10;3.70;;;16.80;99.90;;;;;;10336597;28;20375;-66
2022/07/10 00:29:22;;;;;;;4.67;4.27;;;16.70;99.90;;;;;;10343464;28;20240;-67
2022/07/10 00:34:22;;;;;;;5.30;4.60;;;16.70;99.90;;;;;;10334397;28;20698;-67
2022/07/10 00:39:26;;;;;;;4.37;3.97;;;16.60;99.90;;;;;;10349353;28;20258;-67
2022/07/10 00:44:28;;;;;;;6.37;5.30;;;16.60;99.90;;;;;;10308359;28;20636;-66
2022/07/10 00:49:28;;;;;;;4.80;4.17;;;16.50;99.90;;;;;;10350642;28;20708;-67
2022/07/10 00:54:30;;;;;;;4.20;3.80;;;16.40;99.90;;;;;;10323213;28;20237;-67
2022/07/10 00:59:31;;;;;;;6.00;3.97;;;16.20;99.90;;;;;;10338344;28;20217;-67
2022/07/10 01:04:33;;;;;;;4.23;3.73;;;16.20;99.90;;;;;;10350593;28;20709;-67
2022/07/10 01:09:34;;;;;;;7.53;4.47;;;16.10;99.90;;;;;;10325342;28;20252;-67
2022/07/10 01:14:35;;;;;;;4.33;3.83;;;16.00;99.90;;;;;;10346446;28;20219;-67
2022/07/10 01:19:36;;;;;;;4.27;3.90;;;16.00;99.90;;;;;;10346976;28;20228;-68
2022/07/10 01:24:37;;;;;;;4.37;3.70;;;15.90;99.90;;;;;;10341209;28;20562;-67
2022/07/10 01:29:37;;;;;;;4.93;3.80;;;15.90;99.90;;;;;;10338256;28;21082;-67
2022/07/10 01:34:39;;;;;;;4.73;4.17;;;15.90;99.90;;;;;;10335035;28;20284;-67
2022/07/10 01:39:40;;;;;;;4.97;3.60;;;15.80;99.90;;;;;;10332807;28;20233;-67
2022/07/10 01:44:40;;;;;;;4.53;3.60;;;15.80;99.90;;;;;;10333242;28;20305;-67
2022/07/10 01:49:44;;;;;;;4.97;3.40;;;15.70;99.90;;;;;;10336033;28;20219;-67
2022/07/10 01:54:44;;;;;;;3.60;3.10;;;15.70;99.90;;;;;;10326811;28;20227;-67
2022/07/10 01:59:45;;;;;;;4.33;2.30;;;15.70;99.90;;;;;;10350301;28;20221;-67
2022/07/10 02:04:46;;;;;;;4.03;2.80;;;15.90;99.90;;;;;;10359559;28;20219;-67
2022/07/10 02:09:46;;;;;;;3.27;2.30;;;16.10;99.90;;;;;;10351817;28;20311;-67
2022/07/10 02:14:47;;;;;;;6.33;2.40;;;16.30;99.90;;;;;;10349588;28;20224;-66
2022/07/10 02:19:48;;;;;;;4.30;2.10;;;16.30;99.90;;;;;;10349221;28;20865;-67
2022/07/10 02:24:48;;;;;;;3.60;2.37;;;16.30;99.90;;;;;;10350712;28;20222;-66
2022/07/10 02:29:49;;;;;;;2.93;1.87;;;16.20;99.90;;;;;;10349514;28;20215;-67
2022/07/10 02:34:49;;;;;;;3.70;1.90;;;16.10;99.90;;;;;;10342077;28;20227;-67
2022/07/10 02:39:50;;;;;;;2.33;1.57;;;16.10;99.90;;;;;;10348408;28;20214;-66
2022/07/10 02:44:51;;;;;;;2.53;1.60;;;16.00;99.90;;;;;;10353659;28;20275;-66
2022/07/10 02:49:51;;;;;;;3.30;2.13;;;16.00;99.90;;;;;;10348172;28;20226;-67
2022/07/10 02:54:52;;;;;;;3.50;1.67;;;16.00;99.90;;;;;;10352537;28;20470;-67
2022/07/10 02:59:53;;;;;;;5.70;2.27;;;16.00;99.90;;;;;;10340493;28;20230;-67
2022/07/10 03:04:54;;;;;;;4.90;1.80;;;16.00;99.90;;;;;;10346572;28;20579;-67
2022/07/10 03:09:54;;;;;;;3.33;1.83;;;16.10;99.90;;;;;;10341655;28;20326;-67
2022/07/10 03:14:55;;;;;;;4.97;1.93;;;16.10;99.90;;;;;;10359207;28;20220;-67
2022/07/10 03:19:55;;;;;;;5.30;1.83;;;16.00;99.90;;;;;;10324520;28;20228;-66
2022/07/10 03:24:56;;;;;;;3.20;1.63;;;15.80;99.90;;;;;;10354947;28;20224;-66
2022/07/10 03:29:57;;;;;;;3.80;1.80;;;15.70;99.90;;;;;;10341243;28;20226;-67
2022/07/10 03:34:58;;;;;;;3.67;1.40;;;15.60;99.90;;;;;;10351450;28;20217;-67
2022/07/10 03:39:58;;;;;;;4.53;1.80;;;15.50;99.90;;;;;;10336397;28;20219;-67
2022/07/10 03:45:02;;;;;;;3.10;1.57;;;15.50;99.90;;;;;;10356240;28;20216;-67
2022/07/10 03:50:03;;;;;;;4.13;1.60;;;15.50;99.90;;;;;;10333053;28;20218;-67
2022/07/10 03:55:04;;;;;;;6.03;1.63;;;15.50;99.90;;;;;;10341523;28;20367;-67
2022/07/10 04:00:05;;;;;;;2.93;1.77;;;15.60;99.90;;;;;;10348059;28;20601;-67
2022/07/10 04:05:07;;;;;;;5.73;1.70;;;15.70;99.90;;;;;;10336151;28;20176;-67
2022/07/10 04:10:09;;;;;;;3.77;1.70;;;15.70;99.90;;;;;;10346977;28;20188;-68
2022/07/10 04:15:10;;;;;;;4.33;1.70;;;15.60;99.90;;;;;;10342839;28;20234;-67
2022/07/10 04:20:15;;;;;;;4.93;1.50;;;15.60;99.90;;;;;;10336610;28;20232;-67
2022/07/10 04:25:16;;;;;;;3.00;1.50;;;15.70;99.90;;;;;;10339931;28;20183;-67
2022/07/10 04:30:16;;;;;;;3.07;1.37;;;15.70;99.90;;;;;;10345099;28;20210;-68
2022/07/10 04:35:17;;;;;;;3.60;1.50;;;15.70;99.90;;;;;;10341815;28;20193;-68
2022/07/10 04:40:17;;;;;;;4.13;1.53;;;15.80;99.90;;;;;;10343739;28;20217;-68
2022/07/10 04:45:18;;;;;;;5.03;1.80;;;15.80;99.90;;;;;;10337083;28;20225;-66
2022/07/10 04:50:19;;;;;;;3.80;1.50;;;16.00;99.90;;;;;;10351054;28;20200;-67
2022/07/10 04:55:21;;;;;;;2.50;1.10;;;16.60;99.90;;;;;;10309673;28;20192;-67
2022/07/10 05:00:22;;;;;;;3.50;1.50;;;17.20;99.90;;;;;;10342046;28;20245;-68
2022/07/10 05:05:22;;;;;;;3.70;1.30;;;17.40;99.90;;;;;;10321924;28;20212;-67
2022/07/10 05:10:23;;;;;;;4.20;1.20;;;17.30;99.90;;;;;;10351022;28;20195;-66
2022/07/10 05:15:24;;;;;;;4.57;1.13;;;19.00;99.90;;;;;;10343829;28;20255;-68
2022/07/10 05:20:24;;;;;;;4.27;1.30;;;18.90;99.90;;;;;;10339491;28;20317;-68
2022/07/10 05:25:26;;;;;;;4.63;1.43;;;18.00;99.90;;;;;;10337533;28;20642;-68
2022/07/10 05:30:26;;;;;;;4.63;1.30;;;17.40;99.90;;;;;;10354161;28;20325;-67
2022/07/10 05:35:27;;;;;;;3.57;1.10;;;17.20;99.90;;;;;;10335075;28;20269;-68
2022/07/10 05:40:28;;;;;;;3.60;1.50;;;17.40;99.90;;;;;;10350152;28;20229;-67
2022/07/10 05:45:29;;;;;;;3.77;1.50;;;17.60;99.90;;;;;;10345500;28;20242;-67
2022/07/10 05:50:30;;;;;;;1.37;0.80;;;18.40;99.90;;;;;;10348579;28;20696;-68
2022/07/10 05:55:30;;;;;;;2.73;1.20;;;20.90;99.90;;;;;;10343177;28;20248;-68
2022/07/10 06:00:31;;;;;;;5.00;1.40;;;24.80;92.70;;;;;;10350689;28;20240;-66
2022/07/10 06:05:32;;;;;;;4.27;1.10;;;27.70;68.40;;;;;;10347714;28;20298;-68
2022/07/10 06:10:32;;;;;;;3.33;1.00;;;26.80;60.90;;;;;;10349846;28;20331;-68
2022/07/10 06:15:33;;;;;;;3.33;1.20;;;26.10;61.00;;;;;;10348546;28;20299;-67
2022/07/10 06:20:33;;;;;;;5.00;1.33;;;25.70;61.50;;;;;;10339675;28;20236;-67
2022/07/10 06:25:34;;;;;;;2.93;1.20;;;28.30;56.50;;;;;;10352183;28;20221;-67
2022/07/10 06:30:35;;;;;;;4.00;1.00;;;30.70;48.20;;;;;;10350022;28;20320;-67
2022/07/10 06:35:35;;;;;;;2.77;0.77;;;32.10;43.00;;;;;;10340019;28;20221;-67
2022/07/10 06:40:37;;;;;;;2.20;0.97;;;32.70;40.30;;;;;;10356529;28;20235;-68
2022/07/10 06:45:39;;;;;;;3.87;1.13;;;32.20;39.00;;;;;;10343110;28;20225;-67
2022/07/10 06:50:40;;;;;;;4.23;1.10;;;29.10;41.60;;;;;;10347942;28;20313;-67
2022/07/10 06:55:40;;;;;;;2.20;0.90;;;26.00;47.90;;;;;;10340999;28;20262;-67
2022/07/10 07:00:41;;;;;;;5.27;1.20;;;25.10;50.40;;;;;;10339416;28;20711;-67
2022/07/10 07:05:45;;;;;;;1.47;0.60;;;24.40;52.00;;;;;;10348670;28;20225;-67
2022/07/10 07:10:46;;;;;;;4.87;1.30;;;26.30;48.80;;;;;;10337621;28;20229;-67
2022/07/10 07:15:55;;;;;;;2.63;1.03;;;27.50;45.60;;;;;;10353381;28;20707;-67
2022/07/10 07:26:14;;;;;;;3.10;0.90;;;25.10;50.10;;;;;;10339592;28;20283;-67
2022/07/10 07:31:17;;;;;;;3.73;1.23;;;24.30;51.50;;;;;;10345850;28;20236;-67
2022/07/10 07:36:18;;;;;;;2.90;1.07;;;25.00;51.50;;;;;;10332704;28;20247;-67
2022/07/10 07:41:19;;;;;;;3.23;1.13;;;26.90;48.50;;;;;;10345393;28;20264;-67
2022/07/10 07:46:20;;;;;;;3.33;0.80;;;26.80;45.70;;;;;;10317336;28;20248;-67
2022/07/10 07:51:21;;;;;;;4.00;1.10;;;28.40;45.00;;;;;;10351189;28;20222;-67
2022/07/10 07:56:21;;;;;;;2.27;0.90;;;31.50;37.80;;;;;;10351047;28;20224;-67
2022/07/10 08:01:22;;;;;;;2.73;0.90;;;32.30;34.50;;;;;;10345774;28;20230;-67
2022/07/10 08:06:23;;;;;;;1.97;0.97;;;33.20;33.70;;;;;;10339027;28;20221;-68
2022/07/10 08:11:23;;;;;;;1.83;0.70;;;32.10;33.30;;;;;;10340259;28;20677;-67
2022/07/10 08:16:24;;;;;;;2.40;0.70;;;33.30;32.20;;;;;;10351269;28;20225;-67
2022/07/10 08:21:25;;;;;;;3.70;0.87;;;34.80;30.90;;;;;;10347572;28;20320;-67
2022/07/10 08:26:25;;;;;;;2.67;0.90;;;33.60;31.80;;;;;;10319064;28;20232;-67
2022/07/10 08:31:26;;;;;;;4.00;1.00;;;34.10;30.20;;;;;;10344208;28;20648;-68
2022/07/10 08:36:27;;;;;;;2.40;0.70;;;33.10;30.60;;;;;;10335299;28;20225;-68
2022/07/10 08:41:28;;;;;;;1.77;0.70;;;31.20;33.70;;;;;;10350375;28;20259;-67
2022/07/10 08:46:31;;;;;;;1.47;0.60;;;30.70;35.00;;;;;;10346489;28;20308;-67
2022/07/10 08:51:52;;;;;;;2.07;1.00;;;31.30;33.60;;;;;;10329181;28;20307;-67
2022/07/10 08:56:53;;;;;;;2.53;0.93;;;30.90;34.80;;;;;;10331206;28;20229;-68
2022/07/10 09:01:54;;;;;;;3.13;1.10;;;30.70;35.40;;;;;;10350263;28;20603;-68
2022/07/10 09:06:55;;;;;;;4.03;1.00;;;29.80;37.40;;;;;;10335008;28;20345;-67
2022/07/10 09:11:59;;;;;;;5.33;0.83;;;28.10;39.50;;;;;;10319499;28;20233;-67
2022/07/10 09:17:02;;;;;;;2.10;0.70;;;26.60;41.60;;;;;;10351211;28;20217;-67
2022/07/10 09:22:07;;;;;;;3.10;1.10;;;25.90;43.20;;;;;;10342800;28;20286;-67
2022/07/10 09:27:08;;;;;;;2.53;0.90;;;26.40;41.00;;;;;;10324938;28;20237;-67
2022/07/10 09:32:09;;;;;;;4.03;0.87;;;25.60;42.90;;;;;;10334670;28;20224;-67
2022/07/10 09:37:19;;;;;;;2.73;1.03;;;25.00;43.50;;;;;;10344157;28;20295;-68
2022/07/10 09:42:31;;;;;;;3.00;1.03;;;24.60;44.80;;;;;;10337875;28;20313;-67
2022/07/10 09:47:32;;;;;;;3.23;0.93;;;24.30;45.60;;;;;;10350175;28;20226;-67
2022/07/10 09:52:33;;;;;;;3.37;1.10;;;24.00;46.70;;;;;;10338173;28;20214;-67
2022/07/10 09:57:35;;;;;;;2.87;0.90;;;24.40;46.60;;;;;;10327904;28;20502;-67
2022/07/10 10:02:35;;;;;;;3.23;1.00;;;26.30;44.20;;;;;;10342506;28;20663;-67
2022/07/10 10:07:38;;;;;;;4.03;1.00;;;28.10;41.10;;;;;;10339186;28;20313;-68
2022/07/10 10:12:54;;;;;;;3.43;1.30;;;29.70;37.60;;;;;;10340220;28;20231;-67
2022/07/10 10:17:55;;;;;;;2.70;0.90;;;28.20;38.70;;;;;;10345726;28;20233;-68
2022/07/10 10:23:00;;;;;;;2.93;0.80;;;27.20;41.60;;;;;;10349228;28;20320;-68
2022/07/10 10:28:04;;;;;;;2.90;1.10;;;30.00;39.00;;;;;;10333127;28;20226;-68
2022/07/10 10:33:34;;;;;;;3.17;1.10;;;29.90;37.70;;;;;;10344727;28;20218;-68
2022/07/10 10:38:55;;;;;;;3.23;1.27;;;27.70;40.80;;;;;;10357805;28;20666;-66
2022/07/10 10:44:16;;;;;;;2.80;1.03;;;29.70;39.40;;;;;;10343558;28;20222;-68
2022/07/10 10:49:18;;;;;;;2.30;1.00;;;30.80;36.70;;;;;;10327160;28;20224;-68
2022/07/10 10:54:19;;;;;;;3.97;1.40;;;32.90;34.30;;;;;;10331117;28;20239;-68
2022/07/10 10:59:58;;;;;;;3.73;1.33;;;32.60;34.10;;;;;;10337159;28;20257;-66
2022/07/10 11:05:11;;;;;;;3.40;1.10;;;30.50;36.50;;;;;;10337508;28;20583;-67
2022/07/10 11:10:30;;;;;;;2.97;1.23;;;28.50;39.40;;;;;;10330090;28;20225;-67
2022/07/10 11:15:35;;;;;;;3.13;1.43;;;27.70;41.70;;;;;;10339881;28;20229;-67
2022/07/10 11:20:44;;;;;;;3.30;1.33;;;28.10;41.10;;;;;;10329685;28;20229;-67
2022/07/10 11:26:07;;;;;;;4.50;1.23;;;27.20;42.70;;;;;;10346865;28;20221;-68
2022/07/10 11:31:07;;;;;;;2.97;1.30;;;27.10;43.80;;;;;;10334285;28;20218;-67
2022/07/10 11:36:21;;;;;;;3.60;1.53;;;27.90;41.90;;;;;;10331791;28;20695;-67
2022/07/10 11:41:26;;;;;;;4.30;1.13;;;27.40;42.50;;;;;;10349843;28;20249;-66
2022/07/10 11:46:29;;;;;;;4.37;1.13;;;26.50;44.20;;;;;;10328430;28;20235;-68
2022/07/10 11:51:30;;;;;;;3.53;1.40;;;25.90;45.30;;;;;;10338792;28;20220;-67
2022/07/10 11:56:35;;;;;;;2.83;1.10;;;25.80;46.40;;;;;;10352758;28;20738;-67
2022/07/10 12:01:40;;;;;;;5.03;1.37;;;26.10;44.90;;;;;;10346113;28;20233;-67
2022/07/10 12:06:44;;;;;;;2.53;1.13;;;26.10;45.10;;;;;;10338838;28;20244;-67
2022/07/10 12:11:59;;;;;;;2.67;1.20;;;26.30;45.20;;;;;;10338404;28;20224;-67
2022/07/10 12:17:00;;;;;;;3.90;1.10;;;26.40;44.60;;;;;;10346135;28;20221;-68
2022/07/10 12:22:01;;;;;;;4.70;1.33;;;26.10;44.90;;;;;;10327424;28;20231;-66
2022/07/10 12:27:02;;;;;;;2.47;1.00;;;25.80;45.50;;;;;;10353259;28;20232;-67
2022/07/10 12:32:03;;;;;;;3.47;1.17;;;25.20;47.10;;;;;;10343967;28;20228;-68
2022/07/10 12:37:12;;;;;;;5.20;1.40;;;24.70;48.40;;;;;;10335124;28;20245;-67
2022/07/10 12:42:14;;;;;;;4.70;1.40;;;24.60;49.10;;;;;;10321875;28;20334;-67
2022/07/10 12:47:16;;;;;;;12.87;1.50;;;24.70;48.70;;;;;;10336462;28;20711;-67
2022/07/10 12:52:32;;;;;;;2.10;0.90;;;25.20;48.30;;;;;;10325302;28;20305;-67
2022/07/10 12:57:32;;;;;;;5.03;1.33;;;25.60;47.30;;;;;;10345786;28;20226;-68
2022/07/10 13:02:33;;;;;;;3.70;1.00;;;25.70;47.50;;;;;;10345593;28;20219;-67
2022/07/10 13:07:35;;;;;;;2.53;1.00;;;25.80;47.40;;;;;;10336670;28;20587;-66
2022/07/10 13:12:36;;;;;;;4.00;1.30;;;25.60;47.90;;;;;;10343619;28;20271;-67
2022/07/10 13:17:44;;;;;;;3.13;1.10;;;25.70;46.90;;;;;;10332507;28;20729;-67
2022/07/10 13:22:44;;;;;;;3.43;1.20;;;25.80;46.90;;;;;;10343080;28;20208;-67
2022/07/10 13:27:46;;;;;;;2.57;1.20;;;26.00;46.70;;;;;;10345336;28;20221;-67
2022/07/10 13:32:46;;;;;;;3.30;1.10;;;26.30;46.70;;;;;;10313420;28;20279;-67
2022/07/10 13:37:47;;;;;;;2.43;0.87;;;26.30;45.50;;;;;;10351169;28;20255;-67
2022/07/10 13:42:48;;;;;;;3.07;1.00;;;26.10;46.50;;;;;;10344172;28;20617;-67
2022/07/10 13:47:49;;;;;;;2.97;1.07;;;25.60;47.00;;;;;;10348687;28;20227;-67
2022/07/10 13:52:49;;;;;;;3.67;0.80;;;25.40;47.90;;;;;;10359295;28;20225;-67
2022/07/10 13:57:50;;;;;;;3.67;0.97;;;25.30;48.30;;;;;;10343887;28;20245;-67
2022/07/10 14:02:51;;;;;;;1.83;0.90;;;25.10;48.80;;;;;;10350858;28;20222;-67
2022/07/10 14:07:52;;;;;;;3.60;1.17;;;25.10;48.70;;;;;;10359005;28;20218;-67
2022/07/10 14:12:53;;;;;;;3.27;0.97;;;25.00;49.00;;;;;;10322331;28;20224;-67
2022/07/10 14:17:54;;;;;;;1.80;0.80;;;25.20;48.70;;;;;;10347849;28;20226;-67
2022/07/10 14:22:55;;;;;;;2.03;0.63;;;25.30;48.10;;;;;;10352459;28;20810;-67
2022/07/10 14:27:56;;;;;;;2.40;1.03;;;25.20;47.90;;;;;;10337482;28;20229;-67
2022/07/10 14:32:56;;;;;;;1.33;0.77;;;24.80;49.00;;;;;;10342654;28;20217;-67
2022/07/10 14:37:57;;;;;;;2.10;0.60;;;24.40;51.00;;;;;;10342106;28;20222;-68
2022/07/10 14:42:58;;;;;;;1.60;0.80;;;24.00;50.90;;;;;;10340402;28;20224;-66
2022/07/10 14:47:58;;;;;;;1.53;0.70;;;24.30;50.50;;;;;;10350584;28;20770;-67
2022/07/10 14:52:59;;;;;;;2.17;0.80;;;24.60;50.20;;;;;;10347430;28;20214;-67
2022/07/10 14:58:06;;;;;;;1.97;0.80;;;24.70;49.90;;;;;;10328927;28;20252;-67
2022/07/10 15:03:07;;;;;;;2.47;1.07;;;24.30;50.40;;;;;;10356442;28;20260;-67
2022/07/10 15:08:09;;;;;;;2.07;0.50;;;24.20;51.40;;;;;;10346374;28;20244;-66
2022/07/10 15:13:09;;;;;;;2.23;1.10;;;23.70;52.90;;;;;;10342693;28;20225;-67
2022/07/10 15:18:10;;;;;;;3.13;0.80;;;23.30;54.20;;;;;;10343182;28;20241;-66
2022/07/10 15:23:12;;;;;;;0.50;0.47;;;23.00;56.40;;;;;;10327508;28;20236;-66
2022/07/10 15:28:13;;;;;;;3.73;0.63;;;22.90;56.60;;;;;;10334339;28;20264;-66
2022/07/10 15:33:13;;;;;;;4.17;0.80;;;22.80;57.60;;;;;;10351892;28;20253;-67
2022/07/10 15:38:14;;;;;;;2.60;0.80;;;22.60;58.50;;;;;;10318779;28;20230;-67
2022/07/10 15:43:15;;;;;;;2.70;0.60;;;22.70;58.80;;;;;;10359099;28;20221;-67
2022/07/10 15:48:15;;;;;;;2.90;0.70;;;22.70;58.60;;;;;;10346166;28;20601;-66
2022/07/10 15:53:16;;;;;;;1.93;0.53;;;23.00;58.60;;;;;;10332285;28;20222;-67
2022/07/10 15:58:17;;;;;;;1.40;0.90;;;23.20;58.20;;;;;;10346864;28;20241;-67
2022/07/10 16:03:17;;;;;;;1.23;0.77;;;23.20;58.00;;;;;;10338022;28;20672;-67
2022/07/10 16:08:20;;;;;;;1.87;0.73;;;23.40;57.70;;;;;;10348980;28;20237;-68
2022/07/10 16:13:21;;;;;;;1.13;0.60;;;23.20;57.80;;;;;;10345578;28;20280;-67
2022/07/10 16:18:21;;;;;;;0.57;0.50;;;23.00;58.40;;;;;;10340915;28;20264;-66
2022/07/10 16:23:22;;;;;;;1.33;0.37;;;22.80;58.90;;;;;;10338147;28;20241;-67
2022/07/10 16:28:23;;;;;;;1.27;0.50;;;22.50;59.80;;;;;;10347338;28;20225;-66
2022/07/10 16:33:23;;;;;;;2.20;0.90;;;22.20;61.50;;;;;;10338739;28;20319;-67
2022/07/10 16:38:24;;;;;;;0.60;0.40;;;21.90;62.80;;;;;;10344462;28;20606;-67
2022/07/10 16:43:29;;;;;;;1.07;0.97;;;21.80;63.60;;;;;;10304936;28;20225;-67
2022/07/10 16:48:33;;;;;;;2.27;1.07;;;22.00;63.80;;;;;;10310062;28;20222;-67
2022/07/10 16:53:37;;;;;;;1.23;0.70;;;22.10;63.60;;;;;;10343830;28;20320;-67
2022/07/10 16:58:37;;;;;;;0.80;0.70;;;22.30;63.10;;;;;;10344942;28;20233;-67
2022/07/10 17:03:38;;;;;;;1.47;0.90;;;22.40;63.00;;;;;;10332148;28;20219;-68
2022/07/10 17:08:38;;;;;;;1.23;0.80;;;22.50;62.70;;;;;;10338946;28;20310;-67
2022/07/10 17:13:39;;;;;;;1.23;1.13;;;22.40;63.30;;;;;;10320731;28;20222;-67
2022/07/10 17:54:25;;;;;;;1.60;1.50;;;21.80;67.50;;;;;;10639274;27;20822;-67
2022/07/10 17:59:26;;;;;;;2.10;1.60;;;21.60;68.90;;;;;;10544974;27;20237;-68
2022/07/10 18:04:27;;;;;;;2.37;1.60;;;21.50;69.80;;;;;;10568098;27;20228;-69
2022/07/10 18:09:29;;;;;;;1.97;1.83;;;21.30;70.80;;;;;;10561146;27;20494;-68
2022/07/10 18:14:29;;;;;;;1.70;1.60;;;21.20;71.80;;;;;;10562891;27;20226;-68
2022/07/10 18:19:30;;;;;;;2.60;1.33;;;21.20;72.30;;;;;;10559744;27;20291;-67
2022/07/10 18:24:30;;;;;;;3.53;2.10;;;21.20;72.60;;;;;;10861928;23;20238;-69
2022/07/10 18:29:31;;;;;;;1.80;1.70;;;21.00;73.30;;;;;;10468803;28;21001;-69
2022/07/10 18:34:32;;;;;;;2.03;1.83;;;20.80;74.50;;;;;;10478421;28;20192;-69
2022/07/10 18:39:34;;;;;;;3.43;2.40;;;20.70;75.60;;;;;;10478817;28;20251;-69
2022/07/10 18:44:34;;;;;;;4.67;2.40;;;20.50;77.10;;;;;;10496620;28;20257;-68
2022/07/10 18:49:35;;;;;;;2.20;1.90;;;20.40;78.40;;;;;;10500289;28;20243;-68
2022/07/10 18:54:36;;;;;;;2.73;1.53;;;20.30;79.20;;;;;;10502829;28;20246;-68
2022/07/10 18:59:38;;;;;;;1.40;1.40;;;20.20;80.00;;;;;;10498419;28;20208;-67
2022/07/10 19:04:38;;;;;;;3.23;1.87;;;20.10;80.90;;;;;;10466270;28;20220;-68
2022/07/10 19:09:39;;;;;;;3.17;1.40;;;20.00;82.10;;;;;;10459334;28;20672;-68
2022/07/10 19:14:40;;;;;;;1.30;1.20;;;20.20;84.70;;;;;;10470900;28;20212;-68
2022/07/10 19:19:40;;;;;;;2.47;1.57;;;20.60;81.70;;;;;;10416939;28;20218;-67
2022/07/10 19:24:42;;;;;;;1.83;1.47;;;20.70;81.00;;;;;;10432465;28;20287;-66
2022/07/10 19:29:42;;;;;;;1.37;1.27;;;20.50;82.60;;;;;;10442516;28;20778;-69
2022/07/10 19:34:43;;;;;;;2.90;1.50;;;20.50;83.10;;;;;;10440315;28;20631;-69
2022/07/10 19:39:47;;;;;;;2.30;1.40;;;20.20;84.00;;;;;;10456890;28;21002;-70
2022/07/10 19:44:48;;;;;;;2.00;1.53;;;19.90;86.40;;;;;;10446328;28;20234;-68
2022/07/10 19:49:51;;;;;;;1.60;1.50;;;19.60;88.70;;;;;;10442158;28;20288;-68
2022/07/10 19:54:52;;;;;;;1.97;1.63;;;19.40;90.40;;;;;;10444658;28;20239;-69
2022/07/10 19:59:54;;;;;;;5.67;1.90;;;19.30;91.50;;;;;;10441724;28;20257;-68
2022/07/10 20:04:55;;;;;;;1.67;1.57;;;19.20;92.40;;;;;;10444172;28;20927;-71
2022/07/10 20:09:56;;;;;;;4.03;2.07;;;19.10;93.40;;;;;;10433976;28;20229;-69
2022/07/10 20:14:56;;;;;;;4.17;2.07;;;19.30;94.50;;;;;;10436211;28;20232;-69
2022/07/10 20:19:57;;;;;;;3.60;2.27;;;19.50;95.10;;;;;;10441504;28;20270;-69
2022/07/10 20:24:58;;;;;;;2.30;2.10;;;19.60;95.20;;;;;;10439364;28;20231;-69
2022/07/10 20:30:00;;;;;;;2.43;2.23;;;19.50;96.20;;;;;;10450149;28;20297;-69
2022/07/10 20:35:00;;;;;;;2.50;2.30;;;19.30;97.50;;;;;;10448402;28;20611;-69
2022/07/10 20:40:01;;;;;;;2.87;2.30;;;19.20;98.70;;;;;;10448775;28;20305;-69
2022/07/10 20:45:03;;;;;;;2.47;2.27;;;19.10;99.90;;;;;;10449601;28;20650;-69
2022/07/10 20:50:05;;;;;;;4.37;2.80;;;19.00;99.90;;;;;;10445614;28;20230;-69
2022/07/10 20:55:07;;;;;;;4.73;2.50;;;19.00;99.90;;;;;;10445082;28;20211;-68
2022/07/10 21:00:11;;;;;;;4.13;2.50;;;18.90;99.90;;;;;;10438650;28;20829;-69
2022/07/10 21:05:14;;;;;;;2.57;2.37;;;18.80;99.90;;;;;;10444639;28;20195;-69
2022/07/10 21:10:40;;;;;;;2.70;2.50;;;18.80;99.90;;;;;;10434969;28;20199;-69
2022/07/10 21:15:35;;;;;;;4.23;2.63;;;18.80;99.90;;;;;;10436207;28;20293;-69
2022/07/10 21:20:37;;;;;;;3.43;2.30;;;18.70;99.90;;;;;;10440885;28;20302;-68
2022/07/10 21:25:38;;;;;;;4.03;2.77;;;18.70;99.90;;;;;;10438179;28;20218;-68
2022/07/10 21:30:38;;;;;;;6.13;2.57;;;18.70;99.90;;;;;;10429090;28;20242;-68
2022/07/10 21:35:39;;;;;;;2.77;2.50;;;18.70;99.90;;;;;;10435279;28;20310;-69
2022/07/10 21:40:39;;;;;;;5.70;2.57;;;18.70;99.90;;;;;;10427374;28;20293;-67
2022/07/10 21:45:40;;;;;;;3.23;2.50;;;18.70;99.90;;;;;;10426234;28;20277;-68
2022/07/10 21:50:41;;;;;;;3.13;2.30;;;18.60;99.90;;;;;;10443460;28;20238;-67
2022/07/10 21:55:42;;;;;;;2.70;1.97;;;18.60;99.90;;;;;;10437266;28;20282;-68
2022/07/10 22:00:42;;;;;;;3.67;2.57;;;18.60;99.90;;;;;;10438070;28;20223;-67
2022/07/10 22:05:43;;;;;;;4.87;2.77;;;18.60;99.90;;;;;;10435298;28;20237;-68
2022/07/10 22:10:44;;;;;;;2.77;2.57;;;18.60;99.90;;;;;;10445597;28;20239;-68
2022/07/10 22:15:44;;;;;;;5.17;2.50;;;18.50;99.90;;;;;;10427557;28;20241;-67
2022/07/10 22:20:45;;;;;;;4.10;2.70;;;18.50;99.90;;;;;;10440808;28;20298;-68
2022/07/10 22:25:45;;;;;;;3.80;2.50;;;18.50;99.90;;;;;;10443743;28;20234;-68
2022/07/10 22:36:06;;;;;;;2.83;2.37;;;18.50;99.90;;;;;;10446114;28;20877;-68
2022/07/10 22:41:08;;;;;;;5.27;2.90;;;18.40;99.90;;;;;;10432128;28;20223;-69
2022/07/10 22:46:09;;;;;;;2.87;2.30;;;18.40;99.90;;;;;;10440553;28;20307;-68
2022/07/10 22:51:09;;;;;;;4.97;2.57;;;18.40;99.90;;;;;;10448348;28;20239;-68
2022/07/10 22:56:10;;;;;;;3.47;2.50;;;18.40;99.90;;;;;;10443078;28;20234;-69
2022/07/10 23:01:12;;;;;;;4.87;2.20;;;18.50;99.90;;;;;;10441453;28;20313;-68
2022/07/10 23:06:12;;;;;;;3.73;2.10;;;18.40;99.90;;;;;;10440317;28;20238;-70
2022/07/10 23:11:13;;;;;;;6.27;2.70;;;18.50;99.90;;;;;;10441486;28;20253;-67
2022/07/10 23:16:15;;;;;;;3.13;2.13;;;18.50;99.90;;;;;;10448313;28;20292;-67
2022/07/10 23:21:16;;;;;;;3.73;2.20;;;18.50;99.90;;;;;;10435371;28;20219;-68
2022/07/10 23:26:16;;;;;;;4.07;2.20;;;18.50;99.90;;;;;;10441752;28;20678;-67
2022/07/10 23:31:17;;;;;;;3.63;2.20;;;18.50;99.90;;;;;;10443785;28;20226;-67
2022/07/10 23:36:17;;;;;;;2.80;2.20;;;18.50;99.90;;;;;;10427024;28;20218;-67
2022/07/10 23:41:18;;;;;;;2.27;2.03;;;18.50;99.90;;;;;;10452471;28;20303;-67
2022/07/10 23:46:18;;;;;;;4.60;2.20;;;18.40;99.90;;;;;;10437736;28;20225;-68
2022/07/10 23:51:19;;;;;;;1.87;1.77;;;18.40;99.90;;;;;;10445574;28;20279;-69
2022/07/10 23:56:20;;;;;;;2.70;2.20;;;18.40;99.90;;;;;;10450579;28;20301;-67
